Página principal
METAR-TAF:

METAR-TAF

Aeroportos :

Aeroporto Internacional Yoff-Léopold Sédar Senghor

Dakar, Senegal

latitude: 14-44N, longitude: 017-30W, altura: 27 m

Observação actual do tempo

O boletim foi feito há 47 minutos, às 16:00 UTC
Vento 12 kt de nor-nordeste
Temperatura 29°C
Humidade 66%
Pressão 1010 hPa
Visibilidade 10 km ou mais
sem nuvens abaixo de 1500 metros e sem cumulonimbus

METAR: GOOY 201600Z 02012KT CAVOK 29/22 Q1010

Hora: 16:47 (16:47 UTC)

Previsão

O boletim foi feito há 5 horas e 17 minutos, às 11:30 UTC
Previsão válida de 20 às 12 UTC a 21 às 18 UTC
Vento 10 kt de nor-nordeste
Visibilidade 10 km ou mais
Nuvens dispersasa uma altura de 1200 ft
Probabilidade 30% :
Temporariamente
de 20 às 14 UTC a 20 às 18 UTC
Visibilidade: 4000 m
Nuvens fragmentadasa uma altura de 1200 ft
Poucas nuvensa uma altura de 2500 ft, Cumulonimbus.
trovoada, chuva

TAF: GOOY 201130Z 2012/2118 02010KT 9999 SCT012 PROB30 TEMPO 2014/2018 4000 TSRA BKN012 FEW025CB

Observações e previsões do tempo de mais de 4000 aeroportos (mensagens METAR e TAF).

As estações disponíveis são os pontos amarelos e vermelhos sobre o mapa.

Mova o rato sobre o mapa para ver o nome da estação.

Depois clique no ponto para visualizar as observações e previsões meteorológicas.

Para alterar o mapa : clique nos botões verdes com uma cruz preta para aumentar o zoom; no botão verde com uma pitada de zoom; ou nas setas verdes para mapas adjacentes.


METAR-TAF: